Time;durP1;ratioP1;P1;durP2;ratioP2;P2;SDS_P1;SDS_P2;PMS_P1;PMS_P2;Temp;Humidity;BMP_temperature;BMP_pressure;BME280_temperature;BME280_humidity;BME280_pressure;Samples;Min_cycle;Max_cycle;Signal;HPM_P1;HPM_P2
2021/09/24 00:01:01;;;;;;;5.68;4.32;;;21.90;60.80;;;;;;5222427;28;20040;-60
2021/09/24 00:03:35;;;;;;;6.40;4.20;;;21.90;60.70;;;;;;5232747;28;20062;-60
2021/09/24 00:06:09;;;;;;;5.82;4.28;;;21.90;60.80;;;;;;5234784;28;20067;-58
2021/09/24 00:08:41;;;;;;;4.68;4.10;;;21.90;60.90;;;;;;5215280;28;20053;-59
2021/09/24 00:11:14;;;;;;;6.90;3.97;;;21.90;60.70;;;;;;5220237;28;20527;-58
2021/09/24 00:13:46;;;;;;;6.13;4.00;;;21.90;60.60;;;;;;5234132;28;20045;-61
2021/09/24 00:16:19;;;;;;;4.28;3.28;;;21.90;60.80;;;;;;5234838;28;20051;-56
2021/09/24 00:18:51;;;;;;;4.55;3.90;;;21.90;60.90;;;;;;5234839;28;20516;-59
2021/09/24 00:21:24;;;;;;;4.63;3.97;;;21.80;60.80;;;;;;5223268;28;20048;-59
2021/09/24 00:23:58;;;;;;;4.63;3.67;;;21.80;61.00;;;;;;5231724;28;20040;-59
2021/09/24 00:26:30;;;;;;;;;;;21.80;60.80;;;;;;5234805;28;20132;-58
2021/09/24 00:29:03;;;;;;;5.75;3.70;;;21.80;60.50;;;;;;5200137;28;19924;-59
2021/09/24 00:31:35;;;;;;;5.32;3.92;;;21.80;60.80;;;;;;5226254;28;20048;-59
2021/09/24 00:34:11;;;;;;;5.13;3.95;;;21.80;60.60;;;;;;5229845;28;20055;-59
2021/09/24 00:36:43;;;;;;;4.10;3.45;;;21.80;60.80;;;;;;5229957;28;20047;-59
2021/09/24 00:39:16;;;;;;;6.15;3.63;;;21.80;60.90;;;;;;5232488;28;20048;-59
2021/09/24 00:41:48;;;;;;;5.20;4.05;;;21.80;61.10;;;;;;5233725;28;20059;-59
2021/09/24 00:44:28;;;;;;;6.70;3.80;;;21.80;61.00;;;;;;5233866;28;20476;-59
2021/09/24 00:47:01;;;;;;;7.15;3.85;;;21.80;61.10;;;;;;5233906;28;20049;-58
2021/09/24 00:49:33;;;;;;;6.63;3.80;;;21.80;61.40;;;;;;5234516;28;20055;-58
2021/09/24 00:52:07;;;;;;;5.18;4.15;;;21.80;61.00;;;;;;5216302;28;20048;-58
2021/09/24 00:54:40;;;;;;;;;;;21.80;61.40;;;;;;5232211;28;20052;-58
2021/09/24 00:57:13;;;;;;;5.82;4.25;;;21.80;61.20;;;;;;5214006;28;20429;-58
2021/09/24 00:59:50;;;;;;;4.45;3.78;;;21.80;61.60;;;;;;5234459;28;20047;-56
2021/09/24 01:02:22;;;;;;;4.82;3.88;;;21.80;61.60;;;;;;5227537;28;20144;-60
2021/09/24 01:04:56;;;;;;;6.25;4.53;;;21.80;61.40;;;;;;5230679;28;20040;-59
2021/09/24 01:07:29;;;;;;;6.30;4.23;;;21.80;61.30;;;;;;5218255;28;20051;-60
2021/09/24 01:10:02;;;;;;;7.10;3.88;;;21.80;61.40;;;;;;5234669;28;20055;-59
2021/09/24 01:12:34;;;;;;;5.70;4.38;;;21.90;61.40;;;;;;5236891;28;20532;-59
2021/09/24 01:15:10;;;;;;;6.37;4.60;;;21.90;61.30;;;;;;5209678;28;20051;-62
2021/09/24 01:17:44;;;;;;;4.88;3.83;;;21.90;60.90;;;;;;5231661;28;20061;-60
2021/09/24 01:20:21;;;;;;;5.05;3.83;;;21.90;61.20;;;;;;5231384;28;20060;-58
2021/09/24 01:22:54;;;;;;;5.45;3.90;;;21.90;61.20;;;;;;5229637;28;20051;-59
2021/09/24 01:25:26;;;;;;;5.17;4.07;;;21.90;61.10;;;;;;5233293;28;20029;-58
2021/09/24 01:28:00;;;;;;;6.50;3.95;;;21.90;61.00;;;;;;5215228;28;20055;-59
2021/09/24 01:30:32;;;;;;;4.68;4.13;;;21.90;60.70;;;;;;5230790;28;20060;-59
2021/09/24 01:33:05;;;;;;;4.90;3.87;;;21.90;60.90;;;;;;5196816;28;20052;-60
2021/09/24 01:35:37;;;;;;;9.73;3.70;;;21.80;60.90;;;;;;5218782;28;20053;-59
2021/09/24 01:38:10;;;;;;;6.10;3.72;;;21.80;60.90;;;;;;5236898;28;20052;-58
2021/09/24 01:40:43;;;;;;;5.90;3.70;;;21.90;60.90;;;;;;5235395;28;20519;-60
2021/09/24 01:43:15;;;;;;;3.97;3.58;;;21.90;60.90;;;;;;5235188;28;20052;-60
2021/09/24 01:45:48;;;;;;;4.43;3.47;;;21.90;60.90;;;;;;5228818;28;20044;-59
2021/09/24 01:48:21;;;;;;;5.22;4.22;;;21.90;60.70;;;;;;5234023;28;20052;-59
2021/09/24 01:50:53;;;;;;;5.78;4.28;;;21.90;60.80;;;;;;5232133;28;20048;-60
2021/09/24 01:53:26;;;;;;;4.38;3.97;;;21.80;60.90;;;;;;5232839;28;20048;-60
2021/09/24 01:55:59;;;;;;;5.90;3.85;;;21.90;61.00;;;;;;5228638;28;20059;-60
2021/09/24 01:58:32;;;;;;;5.60;4.15;;;21.90;61.00;;;;;;5233220;28;20060;-61
2021/09/24 02:01:04;;;;;;;5.07;3.70;;;21.90;61.20;;;;;;5225343;28;20041;-59
2021/09/24 02:03:37;;;;;;;5.13;4.23;;;21.90;61.20;;;;;;5225424;28;20298;-59
2021/09/24 02:06:10;;;;;;;4.90;4.10;;;21.90;61.20;;;;;;5197725;28;20048;-59
2021/09/24 02:08:43;;;;;;;6.75;4.72;;;21.90;61.20;;;;;;5228249;28;20052;-61
2021/09/24 02:11:15;;;;;;;7.00;4.38;;;21.80;61.30;;;;;;5228140;28;20416;-59
2021/09/24 02:13:48;;;;;;;4.50;3.80;;;21.80;61.30;;;;;;5228250;28;20056;-58
2021/09/24 02:16:21;;;;;;;11.17;4.53;;;21.90;61.40;;;;;;5213388;28;20410;-59
2021/09/24 02:18:54;;;;;;;6.03;4.60;;;21.90;61.50;;;;;;5233910;28;20041;-58
2021/09/24 02:21:27;;;;;;;5.07;3.90;;;21.90;61.60;;;;;;5213706;28;20081;-60
2021/09/24 02:23:59;;;;;;;8.27;4.63;;;21.90;61.60;;;;;;5230745;28;20867;-60
2021/09/24 02:26:32;;;;;;;9.13;4.28;;;21.90;61.60;;;;;;5230715;28;20550;-59
2021/09/24 02:29:14;;;;;;;5.28;4.32;;;21.80;61.70;;;;;;5229845;28;20059;-60
2021/09/24 02:31:47;;;;;;;8.55;4.75;;;21.90;61.70;;;;;;5230246;28;20052;-60
2021/09/24 02:34:21;;;;;;;5.70;4.80;;;21.90;61.70;;;;;;5215655;28;20048;-60
2021/09/24 02:36:53;;;;;;;;;;;21.90;61.80;;;;;;5214313;28;20517;-60
2021/09/24 02:39:25;;;;;;;5.97;4.65;;;21.80;61.60;;;;;;5234478;28;19921;-61
2021/09/24 02:41:58;;;;;;;6.00;4.85;;;21.80;61.80;;;;;;5233373;28;20045;-62
2021/09/24 02:44:31;;;;;;;9.40;4.63;;;21.80;61.90;;;;;;5231147;28;20040;-67
2021/09/24 02:47:03;;;;;;;8.52;4.97;;;21.80;61.90;;;;;;5233216;28;20060;-60
2021/09/24 02:49:37;;;;;;;10.00;4.37;;;21.80;62.00;;;;;;5199456;28;20059;-59
2021/09/24 02:52:10;;;;;;;9.27;4.38;;;21.90;62.00;;;;;;5211824;28;20048;-60
2021/09/24 02:54:42;;;;;;;7.00;4.57;;;21.80;62.10;;;;;;5228831;28;20063;-57
2021/09/24 02:57:15;;;;;;;7.17;4.63;;;21.80;62.10;;;;;;5232168;28;20049;-59
2021/09/24 02:59:47;;;;;;;8.43;4.97;;;21.90;62.30;;;;;;5230023;28;20111;-58
2021/09/24 03:02:20;;;;;;;8.88;5.30;;;21.80;62.20;;;;;;5230703;28;20048;-58
2021/09/24 03:04:53;;;;;;;7.30;4.68;;;21.80;62.20;;;;;;5230136;28;20075;-59
2021/09/24 03:07:25;;;;;;;7.40;5.07;;;21.80;62.20;;;;;;5215204;28;20528;-59
2021/09/24 03:09:58;;;;;;;6.60;4.32;;;21.80;62.20;;;;;;5229807;28;20504;-59
2021/09/24 03:12:39;;;;;;;4.80;4.20;;;21.90;62.30;;;;;;5221639;28;20057;-60
2021/09/24 03:15:13;;;;;;;5.22;4.25;;;21.80;62.30;;;;;;5225390;28;20571;-60
2021/09/24 03:17:46;;;;;;;6.50;4.72;;;21.80;62.30;;;;;;5180724;28;20048;-58
2021/09/24 03:20:18;;;;;;;9.27;4.95;;;21.80;62.40;;;;;;5209952;28;20044;-60
2021/09/24 03:22:53;;;;;;;6.28;5.07;;;21.80;62.30;;;;;;5198758;28;20044;-61
2021/09/24 03:25:25;;;;;;;6.57;4.75;;;21.80;62.30;;;;;;5215090;28;20052;-60
2021/09/24 03:27:58;;;;;;;6.18;4.88;;;21.80;62.30;;;;;;5220552;28;20059;-58
2021/09/24 03:30:31;;;;;;;6.20;4.70;;;21.80;62.40;;;;;;5198439;28;20678;-59
2021/09/24 03:33:03;;;;;;;5.40;4.70;;;21.80;62.40;;;;;;5219307;28;20045;-58
2021/09/24 03:35:36;;;;;;;7.72;4.93;;;21.80;62.30;;;;;;5230580;28;20036;-60
2021/09/24 03:38:08;;;;;;;7.88;5.50;;;21.80;62.40;;;;;;5224315;28;20055;-59
2021/09/24 03:40:41;;;;;;;8.73;5.00;;;21.80;62.40;;;;;;5233247;28;20041;-60
2021/09/24 03:43:13;;;;;;;6.03;4.80;;;21.80;62.40;;;;;;5235073;28;20048;-58
2021/09/24 03:45:46;;;;;;;6.40;4.90;;;21.80;62.30;;;;;;5231097;28;20052;-59
2021/09/24 03:48:19;;;;;;;6.77;4.80;;;21.80;62.40;;;;;;5237735;28;20052;-58
2021/09/24 03:50:51;;;;;;;5.25;4.55;;;21.80;62.20;;;;;;5217695;28;20072;-59
2021/09/24 03:53:24;;;;;;;5.88;4.75;;;21.80;62.30;;;;;;5216639;28;20048;-59
2021/09/24 03:55:57;;;;;;;5.43;4.47;;;21.80;62.40;;;;;;5230393;28;20800;-59
2021/09/24 03:58:31;;;;;;;6.28;5.40;;;21.80;62.40;;;;;;5215825;28;20044;-59
2021/09/24 04:01:04;;;;;;;11.15;5.30;;;21.80;62.50;;;;;;5221920;28;20048;-60
2021/09/24 04:03:37;;;;;;;7.03;5.40;;;21.80;62.50;;;;;;5233144;28;20048;-60
2021/09/24 04:06:10;;;;;;;5.23;4.73;;;21.80;62.40;;;;;;5232123;28;20051;-58
2021/09/24 04:08:42;;;;;;;6.32;4.85;;;21.80;62.50;;;;;;5218242;28;20056;-58
2021/09/24 04:11:15;;;;;;;7.63;5.27;;;21.80;62.40;;;;;;5218636;28;20633;-60
2021/09/24 04:13:48;;;;;;;5.25;4.75;;;21.80;62.40;;;;;;5237323;28;20549;-60
2021/09/24 04:16:21;;;;;;;5.32;4.72;;;21.80;62.50;;;;;;5235121;28;20052;-61
2021/09/24 04:18:53;;;;;;;10.65;4.90;;;21.80;62.50;;;;;;5228651;28;20323;-58
2021/09/24 04:21:28;;;;;;;7.90;5.32;;;21.80;62.60;;;;;;5221258;28;20048;-59
2021/09/24 04:24:00;;;;;;;10.80;5.63;;;21.80;62.50;;;;;;5227384;28;20878;-60
2021/09/24 04:26:33;;;;;;;11.50;5.25;;;21.80;62.60;;;;;;5210842;28;20053;-60
2021/09/24 04:29:07;;;;;;;12.30;5.47;;;21.80;62.70;;;;;;5206306;28;20040;-59
2021/09/24 04:31:40;;;;;;;9.88;5.32;;;21.80;62.80;;;;;;5203412;28;20060;-59
2021/09/24 04:34:12;;;;;;;8.18;4.70;;;21.80;62.80;;;;;;5203713;28;20060;-59
2021/09/24 04:36:45;;;;;;;12.33;5.10;;;21.80;62.90;;;;;;5206164;28;20057;-58
2021/09/24 04:39:17;;;;;;;9.40;5.05;;;21.80;62.90;;;;;;5200013;28;20075;-58
2021/09/24 04:41:50;;;;;;;11.48;5.50;;;21.80;63.00;;;;;;5213640;28;20049;-58
2021/09/24 04:44:22;;;;;;;6.75;4.90;;;21.80;63.10;;;;;;5208827;28;20412;-61
2021/09/24 04:46:55;;;;;;;8.55;4.68;;;21.90;63.10;;;;;;5210699;28;20677;-61
2021/09/24 04:49:27;;;;;;;12.23;4.78;;;21.90;63.20;;;;;;5208795;28;20055;-60
2021/09/24 04:52:00;;;;;;;10.05;4.38;;;21.90;63.20;;;;;;5189788;28;20649;-58
2021/09/24 04:54:33;;;;;;;7.22;4.60;;;21.90;63.20;;;;;;5206475;28;20056;-60
2021/09/24 04:57:05;;;;;;;11.93;5.30;;;21.90;63.30;;;;;;5215862;28;20048;-60
2021/09/24 04:59:37;;;;;;;11.77;5.15;;;21.90;63.50;;;;;;5195696;28;20464;-62
2021/09/24 05:02:11;;;;;;;12.70;5.25;;;22.00;63.50;;;;;;5198540;28;20047;-57
2021/09/24 05:04:44;;;;;;;15.55;5.80;;;21.90;63.80;;;;;;5204858;28;20045;-58
2021/09/24 05:07:16;;;;;;;28.02;5.72;;;22.00;63.80;;;;;;5203813;28;20068;-57
2021/09/24 05:09:49;;;;;;;24.65;6.22;;;22.00;63.90;;;;;;5206343;28;20393;-59
2021/09/24 05:12:21;;;;;;;19.00;6.88;;;22.00;63.80;;;;;;5215191;28;20049;-56
2021/09/24 05:14:54;;;;;;;21.98;5.95;;;22.00;63.70;;;;;;5212480;28;20516;-56
2021/09/24 05:17:27;;;;;;;21.40;5.47;;;22.00;63.70;;;;;;5216559;28;20048;-58
2021/09/24 05:19:59;;;;;;;16.17;5.50;;;22.00;63.70;;;;;;5207495;28;20500;-54
2021/09/24 05:22:32;;;;;;;11.88;5.47;;;22.10;63.70;;;;;;5191440;28;20412;-56
2021/09/24 05:25:05;;;;;;;14.52;6.43;;;22.10;63.70;;;;;;5208382;28;20111;-58
2021/09/24 05:27:37;;;;;;;23.80;5.18;;;22.10;63.70;;;;;;5212730;28;20044;-57
2021/09/24 05:30:11;;;;;;;13.07;5.63;;;22.10;63.70;;;;;;5217557;28;20497;-55
2021/09/24 05:32:44;;;;;;;18.98;5.78;;;22.10;63.60;;;;;;5210421;28;20049;-57
2021/09/24 05:35:16;;;;;;;16.10;5.10;;;22.10;63.70;;;;;;5220356;28;20041;-56
2021/09/24 05:37:49;;;;;;;14.60;5.07;;;22.10;63.60;;;;;;5225555;28;20409;-55
2021/09/24 05:40:22;;;;;;;15.88;6.25;;;22.10;63.60;;;;;;5228865;28;20150;-56
2021/09/24 05:42:55;;;;;;;20.10;5.72;;;22.10;63.60;;;;;;5228983;28;20044;-57
2021/09/24 05:45:27;;;;;;;10.93;5.05;;;22.10;63.50;;;;;;5221590;28;20041;-56
2021/09/24 05:47:59;;;;;;;10.23;4.80;;;22.10;63.60;;;;;;5214478;28;20068;-54
2021/09/24 05:50:32;;;;;;;17.73;5.38;;;22.10;63.60;;;;;;5215561;28;20056;-57
2021/09/24 05:53:05;;;;;;;13.53;5.17;;;22.10;63.70;;;;;;5221604;28;20056;-57
2021/09/24 05:55:38;;;;;;;16.05;4.75;;;22.10;63.60;;;;;;5220595;28;20318;-58
2021/09/24 05:58:11;;;;;;;11.73;4.95;;;22.10;63.70;;;;;;5228728;28;20052;-55
2021/09/24 06:00:43;;;;;;;13.02;4.70;;;22.10;63.60;;;;;;5221750;28;20041;-56
2021/09/24 06:03:16;;;;;;;11.85;5.15;;;22.10;63.70;;;;;;5211949;28;20047;-56
2021/09/24 06:05:49;;;;;;;10.38;4.90;;;22.10;63.60;;;;;;5217557;28;20048;-54
2021/09/24 06:08:21;;;;;;;5.97;4.15;;;22.10;63.70;;;;;;5207106;28;20048;-54
2021/09/24 06:10:55;;;;;;;12.65;4.85;;;22.20;63.70;;;;;;5219794;28;20067;-55
2021/09/24 06:13:27;;;;;;;11.60;4.75;;;22.20;63.70;;;;;;5223802;28;20066;-56
2021/09/24 06:16:00;;;;;;;12.57;4.67;;;22.20;63.70;;;;;;5220736;28;20088;-55
2021/09/24 06:18:33;;;;;;;9.90;4.75;;;22.20;63.60;;;;;;5222675;28;20048;-57
2021/09/24 06:21:06;;;;;;;10.40;4.53;;;22.20;63.60;;;;;;5217460;28;20060;-55
2021/09/24 06:23:42;;;;;;;9.98;4.90;;;22.20;63.60;;;;;;5219248;28;20045;-57
2021/09/24 06:26:15;;;;;;;15.20;4.63;;;22.20;63.50;;;;;;5189850;28;20044;-58
2021/09/24 06:28:47;;;;;;;12.25;5.43;;;22.20;63.50;;;;;;5202817;28;20047;-57
2021/09/24 06:31:20;;;;;;;13.50;5.38;;;22.20;63.50;;;;;;5218817;28;20056;-56
2021/09/24 06:33:52;;;;;;;7.88;4.65;;;22.20;63.50;;;;;;5191078;28;20547;-58
2021/09/24 06:36:26;;;;;;;12.07;5.60;;;22.30;63.60;;;;;;5204412;28;20428;-57
2021/09/24 06:38:58;;;;;;;8.00;4.95;;;22.20;63.50;;;;;;5221011;28;20417;-57
2021/09/24 06:41:31;;;;;;;12.97;5.90;;;22.20;63.60;;;;;;5225192;28;20500;-57
2021/09/24 06:44:04;;;;;;;10.00;5.93;;;22.20;63.50;;;;;;5229667;28;20310;-55
2021/09/24 06:46:41;;;;;;;9.77;5.45;;;22.20;63.50;;;;;;5191488;28;20048;-56
2021/09/24 06:49:14;;;;;;;7.70;4.93;;;22.30;63.60;;;;;;5229217;28;20053;-56
2021/09/24 06:51:46;;;;;;;9.52;5.20;;;22.20;63.50;;;;;;5198679;28;20045;-55
2021/09/24 06:54:19;;;;;;;8.27;5.40;;;22.30;63.70;;;;;;5225847;28;20485;-57
2021/09/24 06:56:54;;;;;;;9.45;5.35;;;22.30;63.70;;;;;;5221788;28;20041;-58
2021/09/24 06:59:26;;;;;;;12.57;5.68;;;22.30;63.70;;;;;;5204773;28;20492;-58
2021/09/24 07:02:02;;;;;;;7.85;5.18;;;22.30;63.70;;;;;;5216923;28;20256;-58
2021/09/24 07:04:35;;;;;;;;;;;22.30;63.60;;;;;;5225424;28;20515;-58
2021/09/24 07:07:08;;;;;;;22.05;6.95;;;22.20;63.50;;;;;;5225388;28;19924;-58
2021/09/24 07:09:41;;;;;;;10.95;5.20;;;22.30;63.80;;;;;;5223430;28;20040;-56
2021/09/24 07:12:13;;;;;;;14.75;5.70;;;22.30;63.70;;;;;;5219943;28;20406;-60
2021/09/24 07:14:46;;;;;;;18.13;5.40;;;22.30;63.30;;;;;;5221490;28;20048;-55
2021/09/24 07:17:19;;;;;;;17.40;6.53;;;22.30;64.00;;;;;;5212577;28;20052;-57
2021/09/24 07:19:51;;;;;;;15.13;5.63;;;22.30;64.00;;;;;;5221222;28;20056;-56
2021/09/24 07:27:22;;;;;;;9.90;5.30;;;22.40;64.00;;;;;;5233524;28;20036;-55
2021/09/24 07:29:56;;;;;;;12.75;5.32;;;22.40;64.00;;;;;;5204011;28;20373;-58
2021/09/24 07:32:28;;;;;;;11.57;4.43;;;22.40;64.20;;;;;;5213550;28;20059;-51
2021/09/24 07:35:01;;;;;;;13.83;4.10;;;22.40;64.60;;;;;;5217481;28;20044;-52
2021/09/24 07:37:33;;;;;;;11.10;4.60;;;22.40;64.80;;;;;;5235150;28;20068;-50
2021/09/24 07:40:06;;;;;;;8.48;4.40;;;22.50;64.80;;;;;;5237496;28;20083;-50
2021/09/24 07:42:39;;;;;;;7.88;4.15;;;22.50;64.60;;;;;;5234603;28;20056;-52
2021/09/24 07:45:12;;;;;;;18.88;3.92;;;22.50;64.60;;;;;;5238587;28;20136;-50
2021/09/24 07:47:45;;;;;;;9.40;4.43;;;22.50;64.50;;;;;;5235702;28;20059;-51
2021/09/24 07:50:18;;;;;;;4.90;3.85;;;22.50;64.50;;;;;;5220941;28;20424;-54
2021/09/24 07:52:50;;;;;;;8.55;4.25;;;22.50;64.40;;;;;;5232374;28;20059;-49
2021/09/24 07:55:23;;;;;;;9.88;4.50;;;22.50;64.40;;;;;;5216108;28;20048;-51
2021/09/24 07:58:00;;;;;;;7.43;4.60;;;22.50;64.40;;;;;;5219079;28;20049;-54
2021/09/24 08:00:33;;;;;;;11.68;4.43;;;22.50;64.40;;;;;;5235105;28;20051;-55
2021/09/24 08:03:06;;;;;;;9.53;4.27;;;22.50;64.40;;;;;;5235831;28;20538;-52
2021/09/24 08:05:38;;;;;;;10.95;4.63;;;22.50;64.60;;;;;;5233436;28;20722;-52
2021/09/24 08:08:11;;;;;;;7.78;4.30;;;22.50;64.50;;;;;;5225933;28;20044;-52
2021/09/24 08:10:43;;;;;;;7.70;4.30;;;22.50;64.40;;;;;;5230176;28;20056;-49
2021/09/24 08:13:16;;;;;;;11.50;4.75;;;22.50;64.40;;;;;;5216072;28;20060;-54
2021/09/24 08:15:48;;;;;;;8.60;4.30;;;22.50;64.40;;;;;;5238615;28;20045;-50
2021/09/24 08:18:21;;;;;;;12.45;5.22;;;22.50;64.50;;;;;;5237729;28;20064;-52
2021/09/24 08:20:54;;;;;;;10.98;4.60;;;22.50;64.50;;;;;;5236740;28;20044;-49
2021/09/24 08:23:27;;;;;;;14.02;4.22;;;22.50;64.50;;;;;;5237280;28;20040;-52
2021/09/24 08:26:00;;;;;;;11.02;4.47;;;22.50;64.50;;;;;;5223238;28;20201;-51
2021/09/24 08:28:32;;;;;;;14.52;4.43;;;22.50;64.60;;;;;;5227799;28;20049;-50
2021/09/24 08:31:06;;;;;;;9.25;4.68;;;22.50;64.60;;;;;;5227882;28;20064;-49
2021/09/24 08:33:39;;;;;;;14.00;4.57;;;22.50;64.60;;;;;;5208565;28;20053;-54
2021/09/24 08:36:11;;;;;;;10.40;4.70;;;22.50;64.60;;;;;;5227091;28;20052;-49
2021/09/24 08:38:44;;;;;;;11.13;4.68;;;22.50;64.60;;;;;;5229043;28;20464;-53
2021/09/24 08:41:19;;;;;;;8.82;5.03;;;22.50;64.60;;;;;;5225852;28;20382;-49
2021/09/24 08:43:51;;;;;;;9.30;4.18;;;22.50;64.60;;;;;;5222098;28;20508;-53
2021/09/24 08:46:25;;;;;;;8.52;4.53;;;22.50;64.60;;;;;;5209078;28;20047;-51
2021/09/24 08:48:57;;;;;;;12.93;4.45;;;22.50;64.60;;;;;;5235355;28;20048;-50
2021/09/24 08:51:31;;;;;;;7.93;4.38;;;22.50;64.70;;;;;;5229430;28;20055;-51
2021/09/24 08:54:04;;;;;;;7.20;4.05;;;22.50;64.70;;;;;;5223469;28;20051;-52
2021/09/24 08:56:37;;;;;;;11.05;3.90;;;22.50;64.70;;;;;;5225105;28;20045;-52
2021/09/24 08:59:09;;;;;;;11.60;4.70;;;22.50;64.70;;;;;;5219245;28;20543;-52
2021/09/24 09:02:02;;;;;;;10.13;4.72;;;22.50;64.70;;;;;;5219144;28;20052;-51
2021/09/24 09:04:37;;;;;;;7.00;3.92;;;22.40;64.60;;;;;;5220070;28;20044;-53
2021/09/24 09:07:12;;;;;;;7.80;4.28;;;22.40;64.70;;;;;;5222721;28;20049;-51
2021/09/24 09:09:50;;;;;;;6.32;4.07;;;22.40;64.70;;;;;;5224072;28;20052;-51
2021/09/24 09:12:28;;;;;;;15.02;5.20;;;22.40;64.70;;;;;;5226691;28;20048;-52
2021/09/24 09:15:02;;;;;;;8.80;4.30;;;22.40;64.70;;;;;;5225885;28;20048;-50
2021/09/24 09:17:40;;;;;;;7.13;3.92;;;22.40;64.90;;;;;;5225977;28;20052;-53
2021/09/24 09:20:24;;;;;;;8.40;4.03;;;22.40;64.90;;;;;;5221085;28;20056;-50
2021/09/24 09:23:00;;;;;;;9.07;4.03;;;22.40;65.00;;;;;;5223282;28;20048;-49
2021/09/24 09:25:35;;;;;;;7.35;4.55;;;22.40;65.00;;;;;;5219070;28;20051;-51
2021/09/24 09:28:13;;;;;;;5.30;3.60;;;22.40;65.00;;;;;;5225765;28;20052;-52
2021/09/24 09:30:46;;;;;;;9.63;4.07;;;22.40;65.00;;;;;;5224911;28;20052;-53
2021/09/24 09:33:20;;;;;;;7.32;4.57;;;22.40;65.10;;;;;;5230622;28;20064;-52
2021/09/24 09:36:00;;;;;;;5.90;4.13;;;22.40;65.10;;;;;;5223153;28;20060;-52
2021/09/24 09:38:38;;;;;;;6.95;4.18;;;22.40;65.10;;;;;;5227460;28;20044;-54
2021/09/24 09:41:14;;;;;;;5.53;3.83;;;22.40;65.10;;;;;;5214810;28;20048;-56
2021/09/24 09:43:52;;;;;;;6.10;4.25;;;22.40;65.20;;;;;;5224061;28;20504;-57
2021/09/24 09:46:31;;;;;;;7.22;3.90;;;22.40;65.30;;;;;;5224110;28;20044;-56
2021/09/24 09:49:11;;;;;;;7.03;3.90;;;22.40;65.30;;;;;;5230310;28;20052;-53
2021/09/24 09:51:45;;;;;;;6.75;3.83;;;22.40;65.20;;;;;;5223075;28;20050;-52
2021/09/24 09:54:30;;;;;;;12.60;4.20;;;22.40;65.30;;;;;;5206312;28;20056;-53
2021/09/24 09:57:16;;;;;;;10.10;4.60;;;22.40;65.30;;;;;;5221457;28;20337;-59
2021/09/24 09:59:50;;;;;;;5.00;3.60;;;22.40;65.30;;;;;;5219988;28;20533;-53
2021/09/24 10:02:29;;;;;;;5.28;3.70;;;22.40;65.40;;;;;;5219748;28;20037;-53
2021/09/24 10:05:02;;;;;;;4.82;3.25;;;22.40;65.40;;;;;;5216922;28;20049;-54
2021/09/24 10:07:37;;;;;;;8.93;3.80;;;22.40;65.40;;;;;;5197778;28;20040;-53
2021/09/24 10:10:15;;;;;;;6.68;4.10;;;22.40;65.40;;;;;;5214641;28;20064;-52
2021/09/24 10:12:48;;;;;;;5.47;3.47;;;22.30;65.40;;;;;;5217721;28;20048;-50
2021/09/24 10:15:20;;;;;;;8.10;3.90;;;22.30;65.40;;;;;;5226384;28;20568;-50
2021/09/24 10:17:53;;;;;;;8.23;3.97;;;22.30;65.40;;;;;;5224891;28;20048;-49
2021/09/24 10:20:25;;;;;;;5.93;3.55;;;22.40;65.50;;;;;;5221927;28;20052;-57
2021/09/24 10:22:59;;;;;;;6.88;3.45;;;22.40;65.50;;;;;;5204791;28;20059;-51
2021/09/24 10:25:33;;;;;;;6.63;3.60;;;22.30;65.50;;;;;;5224592;28;20048;-52
2021/09/24 10:28:06;;;;;;;;;;;22.40;65.50;;;;;;5225038;28;20048;-49
2021/09/24 10:30:40;;;;;;;6.63;3.58;;;22.30;65.50;;;;;;5216174;28;19947;-48
2021/09/24 10:33:14;;;;;;;6.40;3.65;;;22.30;65.60;;;;;;5206410;28;20048;-54
2021/09/24 10:35:53;;;;;;;6.35;3.55;;;22.30;65.50;;;;;;5211639;28;20053;-57
2021/09/24 10:38:30;;;;;;;6.05;3.50;;;22.30;65.50;;;;;;5195285;28;20493;-58
2021/09/24 10:41:05;;;;;;;7.82;3.97;;;22.40;65.60;;;;;;5183830;28;21289;-50
2021/09/24 10:43:50;;;;;;;4.70;3.53;;;22.40;65.60;;;;;;5214502;28;20055;-56
2021/09/24 10:46:29;;;;;;;4.57;3.53;;;22.40;65.60;;;;;;5213247;28;20048;-56
2021/09/24 10:49:19;;;;;;;5.55;3.47;;;22.30;65.60;;;;;;5232431;28;20053;-51
2021/09/24 10:51:57;;;;;;;5.80;3.45;;;22.40;65.60;;;;;;5221343;28;20052;-53
2021/09/24 10:54:30;;;;;;;6.63;3.70;;;22.40;65.50;;;;;;5214756;28;20541;-56
2021/09/24 10:57:10;;;;;;;4.60;3.50;;;22.40;65.50;;;;;;5215033;28;20071;-50
2021/09/24 11:00:27;;;;;;;5.05;3.40;;;22.50;65.60;;;;;;5190854;28;20048;-48
2021/09/24 11:03:10;;;;;;;3.80;3.40;;;22.50;65.60;;;;;;5206473;28;20052;-56
2021/09/24 11:06:02;;;;;;;5.95;3.55;;;22.50;65.60;;;;;;5214098;28;20052;-54
2021/09/24 11:08:38;;;;;;;5.90;3.63;;;22.50;65.60;;;;;;5213073;28;20045;-49
2021/09/24 11:11:20;;;;;;;4.05;3.45;;;22.60;65.60;;;;;;5209243;28;20040;-55
2021/09/24 11:13:54;;;;;;;4.93;3.50;;;22.60;65.50;;;;;;5183563;28;20511;-55
2021/09/24 11:16:48;;;;;;;5.13;3.58;;;22.70;65.50;;;;;;5201203;28;20057;-58
2021/09/24 11:19:47;;;;;;;5.43;4.00;;;22.70;65.40;;;;;;5190799;28;20454;-52
2021/09/24 11:22:39;;;;;;;6.03;3.67;;;22.70;65.30;;;;;;5199983;28;20048;-54
2021/09/24 11:25:14;;;;;;;6.82;4.00;;;22.80;65.20;;;;;;5199993;28;20055;-54
2021/09/24 11:27:48;;;;;;;5.43;3.95;;;22.80;65.20;;;;;;5203199;28;20064;-52
2021/09/24 11:30:25;;;;;;;7.00;4.70;;;22.80;65.10;;;;;;5174467;28;20048;-53
2021/09/24 11:32:59;;;;;;;5.60;3.92;;;22.90;65.10;;;;;;5195865;28;20056;-59
2021/09/24 11:35:39;;;;;;;5.10;4.25;;;22.90;65.10;;;;;;5200724;28;20053;-59
2021/09/24 11:38:20;;;;;;;9.93;4.60;;;22.90;65.00;;;;;;5186156;28;20068;-52
2021/09/24 11:40:58;;;;;;;6.72;4.63;;;23.00;65.00;;;;;;5192282;28;20424;-55
2021/09/24 11:43:37;;;;;;;9.70;5.22;;;23.00;64.90;;;;;;5199280;28;20052;-59
2021/09/24 11:46:18;;;;;;;6.22;4.85;;;23.10;64.80;;;;;;5202920;28;20045;-53
2021/09/24 11:48:52;;;;;;;8.00;5.53;;;23.10;64.70;;;;;;5204695;28;21686;-58
2021/09/24 11:51:25;;;;;;;8.45;6.10;;;23.10;64.70;;;;;;5190132;28;20432;-56
2021/09/24 11:53:58;;;;;;;9.32;5.30;;;23.20;64.70;;;;;;5207555;28;20107;-53
2021/09/24 11:56:34;;;;;;;6.90;5.60;;;23.20;64.60;;;;;;5202530;28;20075;-58
2021/09/24 11:59:11;;;;;;;10.75;5.55;;;23.20;64.50;;;;;;5196116;28;20052;-58
2021/09/24 12:01:45;;;;;;;10.68;5.95;;;23.30;64.50;;;;;;5203435;28;20051;-53
2021/09/24 12:04:18;;;;;;;8.65;5.47;;;23.30;64.40;;;;;;5211395;28;20416;-50
2021/09/24 12:06:53;;;;;;;13.68;5.70;;;23.40;64.40;;;;;;5208669;28;20067;-52
2021/09/24 12:09:27;;;;;;;9.95;5.72;;;23.40;64.40;;;;;;5204089;28;20053;-52
2021/09/24 12:12:05;;;;;;;9.60;5.00;;;23.40;64.40;;;;;;5211478;28;20044;-56
2021/09/24 12:14:43;;;;;;;10.25;5.85;;;23.40;64.40;;;;;;5219291;28;20055;-57
2021/09/24 12:17:23;;;;;;;12.13;5.82;;;23.50;64.30;;;;;;5217738;28;20049;-54
2021/09/24 12:19:57;;;;;;;9.05;5.72;;;23.50;64.20;;;;;;5213991;28;20049;-53
2021/09/24 12:22:29;;;;;;;8.70;5.30;;;23.50;64.00;;;;;;5214483;28;20040;-53
2021/09/24 12:25:03;;;;;;;14.23;5.05;;;23.60;63.80;;;;;;5219869;28;20044;-54
2021/09/24 12:27:37;;;;;;;6.68;4.95;;;23.60;63.70;;;;;;5199118;28;20041;-54
2021/09/24 12:30:17;;;;;;;9.23;5.45;;;23.60;63.50;;;;;;5217908;28;20059;-50
2021/09/24 12:32:50;;;;;;;7.68;5.00;;;23.60;63.30;;;;;;5151415;28;20056;-52
2021/09/24 12:35:22;;;;;;;6.78;5.40;;;23.60;63.10;;;;;;5215257;28;20043;-54
2021/09/24 12:37:55;;;;;;;9.82;5.55;;;23.60;63.00;;;;;;5189306;28;20074;-52
2021/09/24 12:40:28;;;;;;;6.15;5.22;;;23.60;62.70;;;;;;5209618;28;20068;-53
2021/09/24 12:43:02;;;;;;;8.83;5.37;;;23.70;62.70;;;;;;5204877;28;20048;-53
2021/09/24 12:45:41;;;;;;;9.18;4.85;;;23.70;62.60;;;;;;5206950;28;20104;-50
2021/09/24 12:48:15;;;;;;;5.97;4.97;;;23.70;62.50;;;;;;5198117;28;20055;-52
2021/09/24 12:50:48;;;;;;;8.27;5.20;;;23.70;62.40;;;;;;5217407;28;20045;-50
2021/09/24 12:53:21;;;;;;;12.68;5.25;;;23.80;62.30;;;;;;5209846;28;20044;-56
2021/09/24 12:55:56;;;;;;;9.18;5.07;;;23.80;62.30;;;;;;5214597;28;20045;-59
2021/09/24 12:58:32;;;;;;;7.90;4.40;;;23.80;62.20;;;;;;5198341;28;20056;-58
2021/09/24 13:01:06;;;;;;;17.03;5.87;;;23.80;62.30;;;;;;5194641;28;20045;-56
2021/09/24 13:03:42;;;;;;;13.93;5.15;;;23.80;62.30;;;;;;5188088;28;20041;-57
2021/09/24 13:06:15;;;;;;;12.00;5.63;;;23.90;62.80;;;;;;5201623;28;20040;-55
2021/09/24 13:08:50;;;;;;;18.13;5.80;;;23.90;62.80;;;;;;5200184;28;20040;-53
2021/09/24 13:11:25;;;;;;;10.30;5.80;;;24.00;63.00;;;;;;5208224;28;20521;-59
2021/09/24 13:14:00;;;;;;;12.50;5.63;;;24.00;63.20;;;;;;5197436;28;20080;-61
2021/09/24 13:16:34;;;;;;;19.08;5.50;;;24.10;63.20;;;;;;5207061;28;20040;-61
2021/09/24 13:19:09;;;;;;;10.95;5.30;;;24.20;63.10;;;;;;5202749;28;20324;-59
2021/09/24 13:21:41;;;;;;;13.50;5.07;;;24.30;63.00;;;;;;5214737;28;20056;-59
2021/09/24 13:24:14;;;;;;;10.55;5.05;;;24.40;63.00;;;;;;5208064;28;20049;-60
2021/09/24 13:26:47;;;;;;;9.57;4.53;;;24.50;62.90;;;;;;5215496;28;20048;-54